Oak Lawn, IL (60453)

16:38 CST le 27 février 2017 (GMT -0600)
MAP878 | | Change Station

Alt. 619 ft 41.72 °N, 87.73 °W | Updated 11 minutes ago

Nuageux
Nuageux
53.0 ° F
Paraît 53.0 ° F
N
1.0
Vent Variable Vent de OSO
Gusts 2.0 mph

Aujourd'hui
Haut(e) -- | Bas -- ° F
--% Risque de précip.
Hier
Haut(e) -- | Bas -- ° F
Precip. -- pouce
Pression 30.09 pouce
Visibilité 10.0 Miles terrestres
Nuages Peu 5000 ft
Nuageux 7000 ft
Point de rosée 36 ° F
Humidité 53%
Précipitations 0.02 pouce
Profondeur de la couche neigeuse Non disponible.
6:28 AM 5:39 PM
Nouvelle lune, 2% visible
METAR KMDW 272153Z 17009G18KT 10SM FEW050 BKN070 12/M01 A3007 RMK AO2 SLP190 T01221006
Pression 30.09 pouce
Visibilité 10.0 Miles terrestres
Nuages Peu 5000 ft
Nuageux 7000 ft
Point de rosée 36 ° F
Humidité 53%
Précipitations 0.02 pouce
Profondeur de la couche neigeuse Non disponible.
6:28 AM 5:39 PM
Nouvelle lune, 2% visible
METAR KMDW 272153Z 17009G18KT 10SM FEW050 BKN070 12/M01 A3007 RMK AO2 SLP190 T01221006

Get Your Daily Forecast Email!

Thanks for signing up!

Be on the lookout for a verification email in your inbox.

You'll start receiving the daily forecast at 8 AM.

×

10-Day Weather Forecast

Almanac

Astronomie

Feb. 27, 2017 Lever Coucher
Temps réel
Crépuscule civil
Crépuscule nautique
Crépuscule astronomique
Lune
Durée de lumière visible
Longueur du jour
Tomorrow will be .
, % of the Moon is Illuminated

Extrêmes aujourd'hui

State Highs State Lows

Community

WunderPhotos

Upload Photos

1,962,540 Photos téléchargées !

WunderBlog® & News

Nearby

Qualité de l'air

  Qualité de l'air Indice de la qualité de l'air Polluant
Not available.

Épaisseur de neige

Station Depth Altitude

Activité sismique

Ville Distance Mag. Time & Date
Minimum magnitude displayed is 2.5.

Températures des eaux côtières

Lieu Température

Stations

Stations météo à proximité

Emplacement de la station Température Refroidissement éolien Point de rosée Humidité Vent Precip. Alt. Mise à jour Type
                   

Watches & Warnings

There are currently no watches in effect.